createdAt,value
2023-02-28T08:01:40.154Z,0.10
2023-02-28T08:04:08.105Z,0.10
2023-02-28T08:06:35.510Z,0.10
2023-02-28T08:09:03.587Z,-0.20
2023-02-28T08:11:31.768Z,-0.10
2023-02-28T08:13:59.560Z,-0.10
2023-02-28T08:16:26.908Z,0.00
2023-02-28T08:18:54.935Z,-0.10
2023-02-28T08:21:22.804Z,0.00
2023-02-28T08:23:51.802Z,0.20
2023-02-28T08:26:20.184Z,0.50
2023-02-28T08:28:47.895Z,0.60
2023-02-28T08:31:17.192Z,0.60
2023-02-28T08:33:45.765Z,0.80
2023-02-28T08:36:13.420Z,0.90
2023-02-28T08:38:41.315Z,1.10
2023-02-28T08:41:12.051Z,1.10
2023-02-28T08:43:41.027Z,1.20
2023-02-28T08:46:12.172Z,1.30
2023-02-28T08:48:40.642Z,1.40
2023-02-28T08:51:11.258Z,1.10
2023-02-28T08:53:40.641Z,1.10
2023-02-28T08:56:18.447Z,1.10
2023-02-28T08:58:47.287Z,1.00
2023-02-28T09:01:18.254Z,1.20
2023-02-28T09:03:47.903Z,1.20
2023-02-28T09:06:17.010Z,1.30
2023-02-28T09:08:46.169Z,1.00
2023-02-28T09:11:14.173Z,0.90
2023-02-28T09:13:41.968Z,1.10
2023-02-28T09:16:13.737Z,1.20
2023-02-28T09:18:41.852Z,1.30
2023-02-28T09:21:15.295Z,1.50
2023-02-28T09:23:48.353Z,1.60
2023-02-28T09:26:21.173Z,1.70
2023-02-28T09:28:49.482Z,1.90
2023-02-28T09:31:22.246Z,2.00
2023-02-28T09:33:52.540Z,2.20
2023-02-28T09:36:23.248Z,2.20
2023-02-28T09:38:52.418Z,2.10
2023-02-28T09:41:40.989Z,1.90
2023-02-28T09:44:16.773Z,2.10
2023-02-28T09:46:48.290Z,1.80
2023-02-28T09:49:20.726Z,1.70
2023-02-28T09:52:10.182Z,1.80
2023-02-28T09:54:38.685Z,2.20
2023-02-28T09:57:07.958Z,2.40
2023-02-28T09:59:48.723Z,2.50
2023-02-28T10:02:59.452Z,2.60
2023-02-28T10:06:06.827Z,2.60
2023-02-28T10:08:33.986Z,2.80
2023-02-28T10:11:08.776Z,2.50
2023-02-28T10:14:02.512Z,2.30
2023-02-28T10:16:38.170Z,2.30
2023-02-28T10:19:22.684Z,2.60
2023-02-28T10:22:21.777Z,2.70
2023-02-28T10:24:54.494Z,2.70
2023-02-28T10:27:29.840Z,2.80
2023-02-28T10:30:00.282Z,2.80
2023-02-28T10:32:30.982Z,2.90
2023-02-28T10:35:20.113Z,2.80
2023-02-28T10:38:02.590Z,2.80
2023-02-28T10:40:38.918Z,3.00
2023-02-28T10:43:27.092Z,3.00
2023-02-28T10:46:03.961Z,2.80
2023-02-28T10:48:35.632Z,2.60
2023-02-28T10:51:06.210Z,2.40
2023-02-28T10:53:57.316Z,2.00
2023-02-28T10:56:26.840Z,2.10
2023-02-28T10:59:24.031Z,2.00
2023-02-28T11:01:53.951Z,2.10
2023-02-28T11:04:36.838Z,2.30
2023-02-28T11:07:05.677Z,2.40
2023-02-28T11:09:40.113Z,2.70
2023-02-28T11:12:19.027Z,2.60
2023-02-28T11:14:53.254Z,2.70
2023-02-28T11:17:27.196Z,2.80
2023-02-28T11:20:04.319Z,3.20
2023-02-28T11:22:40.007Z,3.40
2023-02-28T11:25:20.395Z,3.10
2023-02-28T11:27:52.138Z,3.00
2023-02-28T11:30:41.600Z,2.80
2023-02-28T11:33:30.619Z,2.80
2023-02-28T11:36:27.885Z,2.70
2023-02-28T11:38:58.100Z,2.20
2023-02-28T11:41:40.265Z,2.40
2023-02-28T11:44:25.044Z,2.50
2023-02-28T11:46:59.009Z,2.40
2023-02-28T11:49:55.555Z,2.40
2023-02-28T11:52:45.065Z,2.60
2023-02-28T11:55:36.534Z,2.70
2023-02-28T11:58:18.522Z,2.70
2023-02-28T12:01:37.867Z,2.90
2023-02-28T12:04:20.907Z,2.80
2023-02-28T12:06:54.093Z,3.00
2023-02-28T12:09:47.982Z,3.10
2023-02-28T12:12:30.434Z,3.20
2023-02-28T12:15:45.121Z,3.20
2023-02-28T12:18:24.516Z,3.20
2023-02-28T12:21:23.794Z,2.70
2023-02-28T12:24:02.760Z,2.90
2023-02-28T12:26:30.205Z,3.00
2023-02-28T12:29:25.189Z,3.50
2023-02-28T12:32:14.688Z,3.40
2023-02-28T12:34:52.212Z,3.90
2023-02-28T12:37:29.416Z,4.00
2023-02-28T12:40:06.796Z,3.60
2023-02-28T12:42:40.400Z,3.50
2023-02-28T12:45:11.347Z,3.10
2023-02-28T12:47:43.401Z,3.20
2023-02-28T12:50:12.691Z,3.20
2023-02-28T12:53:01.888Z,3.40
2023-02-28T12:55:47.095Z,3.60
2023-02-28T12:58:33.581Z,3.80
2023-02-28T13:01:15.992Z,3.80
2023-02-28T13:03:53.670Z,4.00
2023-02-28T13:06:43.129Z,4.20
2023-02-28T13:09:19.066Z,4.20
2023-02-28T13:11:50.468Z,4.40
2023-02-28T13:14:24.173Z,4.40
2023-02-28T13:16:59.620Z,3.50
2023-02-28T13:19:33.422Z,3.20
2023-02-28T13:22:01.963Z,3.40
2023-02-28T13:24:35.182Z,3.50
2023-02-28T13:27:02.526Z,3.40
2023-02-28T13:29:36.033Z,3.50
2023-02-28T13:32:09.783Z,3.80
2023-02-28T13:34:52.243Z,4.00
2023-02-28T13:37:22.373Z,4.10
2023-02-28T13:39:54.476Z,4.30
2023-02-28T13:42:50.934Z,4.00
2023-02-28T13:45:25.753Z,3.30
2023-02-28T13:48:04.482Z,3.10
2023-02-28T13:50:38.868Z,3.10
2023-02-28T13:53:15.475Z,3.60
2023-02-28T13:55:52.375Z,3.50
2023-02-28T13:58:40.143Z,3.40
2023-02-28T14:01:39.458Z,3.30
2023-02-28T14:04:51.342Z,3.60
2023-02-28T14:07:24.334Z,3.70
2023-02-28T14:10:06.590Z,4.10
2023-02-28T14:12:55.854Z,4.30
2023-02-28T14:15:40.851Z,4.50
2023-02-28T14:18:27.039Z,4.20
2023-02-28T14:21:09.871Z,4.70
2023-02-28T14:23:37.477Z,5.20
2023-02-28T14:26:36.007Z,5.40
2023-02-28T14:29:26.444Z,5.50
2023-02-28T14:32:12.332Z,5.30
2023-02-28T14:35:11.436Z,4.30
2023-02-28T14:37:40.862Z,4.50
2023-02-28T14:40:39.261Z,4.80
2023-02-28T14:43:19.527Z,4.70
2023-02-28T14:45:58.250Z,4.80
2023-02-28T14:48:27.431Z,4.60
2023-02-28T14:51:00.166Z,4.60
2023-02-28T14:53:29.570Z,4.50
2023-02-28T14:55:57.472Z,4.50
2023-02-28T14:58:24.986Z,4.60
2023-02-28T15:00:55.826Z,4.50
2023-02-28T15:03:31.920Z,4.40
2023-02-28T15:06:03.485Z,4.30
2023-02-28T15:08:36.123Z,4.30
2023-02-28T15:11:08.903Z,4.40
2023-02-28T15:13:48.824Z,4.50
2023-02-28T15:16:39.787Z,4.60
2023-02-28T15:19:14.571Z,4.50
2023-02-28T15:21:47.162Z,4.30
2023-02-28T15:24:32.842Z,4.10
2023-02-28T15:27:08.639Z,4.00
2023-02-28T15:29:46.949Z,3.90
2023-02-28T15:32:40.779Z,3.80
2023-02-28T15:35:31.515Z,3.70
2023-02-28T15:38:04.111Z,3.50
2023-02-28T15:40:42.011Z,3.30
2023-02-28T15:43:25.750Z,3.20
2023-02-28T15:46:05.184Z,3.10
2023-02-28T15:48:36.982Z,2.80
2023-02-28T15:51:18.924Z,2.60
2023-02-28T15:53:52.164Z,2.40
2023-02-28T15:56:34.648Z,2.20
2023-02-28T15:59:06.408Z,2.10
2023-02-28T16:01:38.540Z,2.10
2023-02-28T16:04:18.122Z,2.00
2023-02-28T16:07:00.825Z,1.80
2023-02-28T16:09:32.580Z,1.60
2023-02-28T16:12:04.213Z,1.60
2023-02-28T16:14:32.545Z,1.40
2023-02-28T16:17:27.987Z,1.30
2023-02-28T16:19:56.496Z,1.20
2023-02-28T16:22:23.987Z,1.10
2023-02-28T16:24:52.359Z,1.00
2023-02-28T16:27:49.755Z,1.00
2023-02-28T16:30:29.200Z,0.90
2023-02-28T16:32:57.090Z,0.80
2023-02-28T16:35:25.122Z,0.80
2023-02-28T16:37:53.008Z,0.70
2023-02-28T16:40:26.504Z,0.70
2023-02-28T16:43:00.549Z,0.70
2023-02-28T16:45:30.216Z,0.70
2023-02-28T16:47:58.767Z,0.60
2023-02-28T16:50:30.309Z,0.60
2023-02-28T16:52:58.010Z,0.50
2023-02-28T16:55:27.143Z,0.40
2023-02-28T16:57:57.844Z,0.40
2023-02-28T17:00:26.258Z,0.30
2023-02-28T17:02:53.901Z,0.30
2023-02-28T17:05:22.101Z,0.20
2023-02-28T17:07:49.892Z,0.20
2023-02-28T17:10:21.218Z,0.10
2023-02-28T17:12:49.042Z,0.10
2023-02-28T17:15:18.702Z,0.00
2023-02-28T17:17:47.129Z,-0.10
2023-02-28T17:20:17.499Z,-0.10
2023-02-28T17:22:44.784Z,-0.20
2023-02-28T17:25:12.610Z,-0.20
2023-02-28T17:27:39.916Z,-0.20
2023-02-28T17:30:25.428Z,-0.20
2023-02-28T17:32:52.742Z,-0.30
2023-02-28T17:35:20.627Z,-0.30
2023-02-28T17:37:49.977Z,-0.30
2023-02-28T17:40:21.689Z,-0.30
2023-02-28T17:42:49.350Z,-0.30
2023-02-28T17:45:17.327Z,-0.40
2023-02-28T17:47:48.401Z,-0.30
2023-02-28T17:50:18.954Z,-0.40
2023-02-28T17:52:47.316Z,-0.40
2023-02-28T17:55:15.417Z,-0.40
2023-02-28T17:57:43.124Z,-0.40
2023-02-28T18:00:14.625Z,-0.40
2023-02-28T18:02:43.435Z,-0.50
2023-02-28T18:05:12.369Z,-0.50
2023-02-28T18:07:40.802Z,-0.40
2023-02-28T18:10:28.413Z,-0.50
2023-02-28T18:12:56.126Z,-0.60
2023-02-28T18:15:23.883Z,-0.70
2023-02-28T18:17:51.342Z,-0.70
2023-02-28T18:20:19.785Z,-0.70
2023-02-28T18:22:47.536Z,-0.80
2023-02-28T18:25:17.049Z,-0.80
2023-02-28T18:27:58.238Z,-0.80
2023-02-28T18:30:32.536Z,-0.80
2023-02-28T18:33:01.165Z,-0.90
2023-02-28T18:35:35.410Z,-0.90
2023-02-28T18:38:13.354Z,-0.90
2023-02-28T18:40:42.423Z,-1.00
2023-02-28T18:43:10.427Z,-1.00
2023-02-28T18:45:39.447Z,-1.00
2023-02-28T18:48:06.988Z,-1.00
2023-02-28T18:50:37.005Z,-1.10
2023-02-28T18:53:04.304Z,-1.10
2023-02-28T18:55:32.670Z,-1.10
2023-02-28T18:58:00.312Z,-1.10
2023-02-28T19:00:28.234Z,-1.20
2023-02-28T19:02:55.618Z,-1.20
2023-02-28T19:05:23.945Z,-1.20
2023-02-28T19:07:51.183Z,-1.30
2023-02-28T19:10:19.266Z,-1.30
2023-02-28T19:12:47.113Z,-1.20
2023-02-28T19:15:15.031Z,-1.30
2023-02-28T19:17:42.823Z,-1.40
2023-02-28T19:20:11.072Z,-1.30
2023-02-28T19:22:39.581Z,-1.40
2023-02-28T19:25:08.217Z,-1.40
2023-02-28T19:27:35.728Z,-1.50
2023-02-28T19:30:04.778Z,-1.50
2023-02-28T19:32:32.376Z,-1.50
2023-02-28T19:34:59.949Z,-1.50
2023-02-28T19:37:27.320Z,-1.50
2023-02-28T19:39:57.050Z,-1.60
2023-02-28T19:42:24.819Z,-1.60
2023-02-28T19:44:52.525Z,-1.60
2023-02-28T19:47:19.820Z,-1.70
2023-02-28T19:49:47.529Z,-1.70
2023-02-28T19:52:15.614Z,-1.70
2023-02-28T19:54:43.905Z,-1.70
2023-02-28T19:57:11.208Z,-1.70
2023-02-28T19:59:40.239Z,-1.70
2023-02-28T20:02:15.322Z,-1.80
2023-02-28T20:04:43.544Z,-1.80
2023-02-28T20:07:11.126Z,-1.80
2023-02-28T20:09:38.569Z,-1.90
2023-02-28T20:12:09.323Z,-1.90
2023-02-28T20:14:42.649Z,-1.90
2023-02-28T20:17:10.056Z,-1.90
2023-02-28T20:19:38.247Z,-2.00
2023-02-28T20:22:06.043Z,-2.10
2023-02-28T20:24:34.227Z,-2.10
2023-02-28T20:27:01.788Z,-2.20
2023-02-28T20:29:30.044Z,-2.20
2023-02-28T20:31:58.002Z,-2.10
2023-02-28T20:34:25.545Z,-2.20
2023-02-28T20:36:53.448Z,-2.20
2023-02-28T20:39:21.521Z,-2.20
2023-02-28T20:41:48.852Z,-2.20
2023-02-28T20:44:16.410Z,-2.20
2023-02-28T20:46:45.002Z,-2.30
2023-02-28T20:49:13.134Z,-2.30
2023-02-28T20:51:42.354Z,-2.30
2023-02-28T20:54:11.832Z,-2.40
2023-02-28T20:56:39.260Z,-2.40
2023-02-28T20:59:06.873Z,-2.40
2023-02-28T21:01:34.303Z,-2.40
2023-02-28T21:04:06.047Z,-2.50
2023-02-28T21:06:36.850Z,-2.50
2023-02-28T21:09:07.345Z,-2.50
2023-02-28T21:11:36.900Z,-2.50
2023-02-28T21:14:11.311Z,-2.60
2023-02-28T21:16:39.185Z,-2.60
2023-02-28T21:19:07.145Z,-2.70
2023-02-28T21:21:44.692Z,-2.70
2023-02-28T21:24:14.353Z,-2.70
2023-02-28T21:26:44.583Z,-2.70
2023-02-28T21:29:13.435Z,-2.70
2023-02-28T21:31:41.329Z,-2.80
2023-02-28T21:34:11.059Z,-2.70
2023-02-28T21:36:40.827Z,-2.70
2023-02-28T21:39:14.393Z,-2.80
2023-02-28T21:41:42.102Z,-2.80
2023-02-28T21:44:18.471Z,-2.80
2023-02-28T21:46:48.222Z,-2.90
2023-02-28T21:49:16.360Z,-2.90
2023-02-28T21:51:43.797Z,-2.90
2023-02-28T21:54:11.871Z,-2.90
2023-02-28T21:56:39.681Z,-2.90
2023-02-28T21:59:09.840Z,-3.00
2023-02-28T22:01:44.297Z,-3.00
2023-02-28T22:04:24.144Z,-3.00
2023-02-28T22:06:57.186Z,-3.10
2023-02-28T22:09:25.821Z,-3.20
2023-02-28T22:11:53.152Z,-3.30
2023-02-28T22:14:21.055Z,-3.30
2023-02-28T22:16:53.261Z,-3.30
2023-02-28T22:19:22.709Z,-3.30
2023-02-28T22:21:51.966Z,-3.30
2023-02-28T22:24:21.990Z,-3.30
2023-02-28T22:26:50.643Z,-3.20
2023-02-28T22:29:19.337Z,-3.30
2023-02-28T22:31:46.755Z,-3.30
2023-02-28T22:34:14.460Z,-3.30
2023-02-28T22:36:42.833Z,-3.30
2023-02-28T22:39:11.490Z,-3.40
2023-02-28T22:41:38.960Z,-3.40
2023-02-28T22:44:07.911Z,-3.40
2023-02-28T22:46:36.505Z,-3.40
2023-02-28T22:49:05.569Z,-3.40
2023-02-28T22:51:33.905Z,-3.40
2023-02-28T22:54:02.051Z,-3.40
2023-02-28T22:56:31.019Z,-3.40
2023-02-28T22:59:00.361Z,-3.40
2023-02-28T23:01:31.520Z,-3.40
2023-02-28T23:04:00.016Z,-3.40
2023-02-28T23:06:31.172Z,-3.50
2023-02-28T23:09:01.495Z,-3.50
2023-02-28T23:11:32.670Z,-3.50
2023-02-28T23:14:00.845Z,-3.50
2023-02-28T23:16:37.646Z,-3.50
2023-02-28T23:19:14.433Z,-3.60
2023-02-28T23:21:42.719Z,-3.60
2023-02-28T23:24:11.837Z,-3.60
2023-02-28T23:26:43.830Z,-3.70
2023-02-28T23:29:13.018Z,-3.80
2023-02-28T23:31:40.989Z,-3.80
2023-02-28T23:34:09.567Z,-3.80
2023-02-28T23:36:39.368Z,-3.80
2023-02-28T23:39:06.576Z,-3.80
2023-02-28T23:41:34.530Z,-3.90
2023-02-28T23:44:01.832Z,-3.90
2023-02-28T23:46:29.810Z,-3.90
2023-02-28T23:48:59.114Z,-3.90
2023-02-28T23:51:26.790Z,-4.00
2023-02-28T23:53:54.213Z,-4.00
2023-02-28T23:56:23.614Z,-4.00
2023-02-28T23:58:51.421Z,-4.00
